createdAt,value
2017-07-12T00:01:04.719Z,1003.4
2017-07-12T00:11:20.012Z,1003.4
2017-07-12T00:21:34.514Z,1003.3
2017-07-12T00:31:48.588Z,1003.1
2017-07-12T00:42:02.470Z,1003
2017-07-12T00:52:18.173Z,1003
2017-07-12T01:02:32.090Z,1002.9
2017-07-12T01:12:46.615Z,1003.1
2017-07-12T01:23:01.370Z,1002.9
2017-07-12T01:33:16.181Z,1002.8
2017-07-12T01:43:31.329Z,1002.7
2017-07-12T01:53:46.312Z,1002.6
2017-07-12T02:04:00.334Z,1002.6
2017-07-12T02:14:15.106Z,1002.4
2017-07-12T02:24:29.892Z,1002.4
2017-07-12T02:34:44.942Z,1002.4
2017-07-12T02:44:59.811Z,1002.2
2017-07-12T02:55:15.243Z,1002.1
2017-07-12T03:05:30.925Z,1002.1
2017-07-12T03:15:44.778Z,1002.1
2017-07-12T03:25:59.622Z,1002
2017-07-12T03:36:13.719Z,1001.8
2017-07-12T03:46:28.523Z,1001.7
2017-07-12T03:56:42.310Z,1001.7
2017-07-12T04:06:56.378Z,1001.5
2017-07-12T04:17:10.951Z,1001.4
2017-07-12T04:27:24.748Z,1001.5
2017-07-12T04:37:38.618Z,1001.2
2017-07-12T04:47:54.396Z,1001.2
2017-07-12T04:58:10.085Z,1001.2
2017-07-12T05:08:24.828Z,1001.1
2017-07-12T05:18:40.039Z,1001
2017-07-12T05:28:54.924Z,1000.9
2017-07-12T05:39:09.299Z,1000.9
2017-07-12T05:49:23.162Z,1000.8
2017-07-12T05:59:37.633Z,1000.7
2017-07-12T06:09:52.105Z,1000.5
2017-07-12T06:20:06.938Z,1000.5
2017-07-12T06:30:21.573Z,1000.6
2017-07-12T06:40:35.377Z,1000.4
2017-07-12T06:50:49.306Z,1000.3
2017-07-12T07:01:03.265Z,1000.3
2017-07-12T07:11:18.914Z,1000
2017-07-12T07:21:34.388Z,999.9
2017-07-12T07:31:49.116Z,999.8
2017-07-12T07:42:03.888Z,999.7
2017-07-12T07:52:19.287Z,999.7
2017-07-12T08:02:33.278Z,999.5
2017-07-12T08:12:48.253Z,999.5
2017-07-12T08:23:03.467Z,999.5
2017-07-12T08:33:17.494Z,1000
2017-07-12T08:43:32.115Z,999.8
2017-07-12T08:53:47.010Z,999.2
2017-07-12T09:04:02.211Z,999.1
2017-07-12T09:14:17.821Z,999.1
2017-07-12T09:34:47.195Z,999.2
2017-07-12T09:45:01.296Z,999.1
2017-07-12T09:55:15.697Z,999.3
2017-07-12T10:05:30.315Z,999.6
2017-07-12T10:15:45.802Z,999.6
2017-07-12T10:25:59.668Z,999.4
2017-07-12T10:36:13.952Z,999.1
2017-07-12T10:46:28.892Z,999
2017-07-12T10:56:43.551Z,999.2
2017-07-12T11:17:12.349Z,999.2
2017-07-12T11:27:27.207Z,999.3
2017-07-12T11:37:41.585Z,999.4
2017-07-12T11:47:56.301Z,999.5
2017-07-12T11:58:11.819Z,999.6
2017-07-12T12:08:25.558Z,999.8
2017-07-12T12:18:40.872Z,999.8
2017-07-12T12:28:55.055Z,999.8
2017-07-12T12:39:10.023Z,1000.1
2017-07-12T12:49:24.783Z,1000.4
2017-07-12T12:59:38.996Z,1000.7
2017-07-12T13:09:54.019Z,1001
2017-07-12T13:20:07.959Z,1001.2
2017-07-12T13:30:22.768Z,1001.5
2017-07-12T13:40:37.081Z,1001.8
2017-07-12T13:50:52.323Z,1001.7
2017-07-12T14:01:06.994Z,1002.5
2017-07-12T14:11:20.894Z,1003.1
2017-07-12T14:21:35.812Z,1003
2017-07-12T14:31:51.623Z,1003.2
2017-07-12T14:42:06.844Z,1003.9
2017-07-12T14:52:21.247Z,1004.9
2017-07-12T15:02:36.726Z,1004.9
2017-07-12T15:12:51.877Z,1005
2017-07-12T15:23:06.753Z,1005.5
2017-07-12T15:33:22.042Z,1006
2017-07-12T15:43:37.729Z,1006.3
2017-07-12T15:53:52.832Z,1006.5
2017-07-12T16:04:07.893Z,1006.9
2017-07-12T16:14:22.014Z,1006.9
2017-07-12T16:24:35.936Z,1007.4
2017-07-12T16:34:50.961Z,1007.4
2017-07-12T16:45:05.492Z,1007.6
2017-07-12T16:55:19.952Z,1007.9
2017-07-12T17:05:35.357Z,1008.2
2017-07-12T17:15:49.403Z,1008.3
2017-07-12T17:26:04.125Z,1008.5
2017-07-12T17:36:19.257Z,1008.7
2017-07-12T17:46:33.025Z,1009
2017-07-12T17:56:47.844Z,1009.3
2017-07-12T18:07:02.605Z,1009.6
2017-07-12T18:17:17.426Z,1009.9
2017-07-12T18:27:32.986Z,1010
2017-07-12T18:37:48.400Z,1010.2
2017-07-12T18:48:02.277Z,1010.4
2017-07-12T18:58:18.031Z,1010.6
2017-07-12T19:08:32.233Z,1010.7
2017-07-12T19:18:47.686Z,1010.9
2017-07-12T19:29:02.975Z,1011.1
2017-07-12T19:39:17.241Z,1011.3
2017-07-12T19:49:31.964Z,1011.4
2017-07-12T19:59:47.574Z,1011.5
2017-07-12T20:10:01.898Z,1011.8
2017-07-12T20:20:15.717Z,1012
2017-07-12T20:30:30.893Z,1012.1
2017-07-12T20:40:45.519Z,1012.3
2017-07-12T20:51:00.258Z,1012.4
2017-07-12T21:01:14.711Z,1012.5
2017-07-12T21:11:28.471Z,1012.7
2017-07-12T21:21:43.191Z,1012.8
2017-07-12T21:31:58.334Z,1013
2017-07-12T21:42:13.083Z,1013.1
2017-07-12T21:52:27.788Z,1013.3
2017-07-12T22:02:41.830Z,1013.5
2017-07-12T22:12:55.644Z,1013.6
2017-07-12T22:23:09.533Z,1013.7
2017-07-12T22:33:24.383Z,1013.8
2017-07-12T22:43:38.150Z,1013.9
2017-07-12T22:53:53.547Z,1013.9
2017-07-12T23:04:08.993Z,1014
2017-07-12T23:14:23.086Z,1014
2017-07-12T23:24:37.975Z,1014.1
2017-07-12T23:34:51.575Z,1014.1
2017-07-12T23:45:05.661Z,1014.3
2017-07-12T23:55:19.948Z,1014.3
